Time;durP1;ratioP1;P1;durP2;ratioP2;P2;SDS_P1;SDS_P2;PMS_P1;PMS_P2;Temp;Humidity;BMP_temperature;BMP_pressure;BME280_temperature;BME280_humidity;BME280_pressure;Samples;Min_cycle;Max_cycle;Signal;HPM_P1;HPM_P2
2022/02/08 00:01:39;;;;;;;4.40;3.50;;;9.40;95.70;;;;;;5040156;28;20445;-68
2022/02/08 00:04:05;;;;;;;10.17;4.30;;;9.30;95.70;;;;;;5051877;28;20404;-67
2022/02/08 00:06:44;;;;;;;7.00;3.63;;;9.30;95.80;;;;;;5049251;28;20417;-68
2022/02/08 00:09:11;;;;;;;6.97;3.50;;;9.40;95.80;;;;;;5012357;28;20488;-80
2022/02/08 00:11:37;;;;;;;6.07;3.57;;;9.20;95.90;;;;;;5031253;28;20420;-67
2022/02/08 00:14:04;;;;;;;5.43;3.80;;;9.20;96.10;;;;;;5031442;28;20822;-67
2022/02/08 00:16:30;;;;;;;7.57;3.70;;;9.20;96.50;;;;;;5013615;28;20509;-67
2022/02/08 00:18:56;;;;;;;4.60;3.80;;;9.10;96.50;;;;;;5032961;28;20799;-67
2022/02/08 00:21:22;;;;;;;5.10;4.35;;;9.00;96.90;;;;;;5012504;28;1083287;-68
2022/02/08 00:23:47;;;;;;;6.70;3.60;;;9.10;96.80;;;;;;5033949;28;20173;-67
2022/02/08 00:26:14;;;;;;;9.97;4.07;;;9.10;97.00;;;;;;5033356;28;20445;-81
2022/02/08 00:28:39;;;;;;;8.97;4.10;;;9.20;97.10;;;;;;5051879;28;20181;-67
2022/02/08 00:31:05;;;;;;;5.77;3.57;;;9.10;97.30;;;;;;5046674;28;20421;-67
2022/02/08 00:33:31;;;;;;;6.77;3.47;;;9.10;97.60;;;;;;5031115;28;20174;-67
2022/02/08 00:35:57;;;;;;;4.03;3.37;;;9.10;97.90;;;;;;5031881;28;20502;-68
2022/02/08 00:38:22;;;;;;;9.77;3.90;;;9.10;98.00;;;;;;5013394;28;20277;-68
2022/02/08 00:40:49;;;;;;;5.70;3.57;;;9.10;98.10;;;;;;5016125;28;20299;-67
2022/02/08 00:43:24;;;;;;;6.53;3.93;;;9.20;98.20;;;;;;5051056;28;20188;-71
2022/02/08 00:46:13;;;;;;;9.00;4.20;;;9.20;98.70;;;;;;5034171;28;20413;-67
2022/02/08 00:48:47;;;;;;;5.33;4.00;;;9.20;98.80;;;;;;5051580;28;20494;-67
2022/02/08 00:51:13;;;;;;;6.60;4.50;;;9.20;99.00;;;;;;5051068;28;20434;-81
2022/02/08 00:53:39;;;;;;;5.60;3.60;;;9.20;99.50;;;;;;5051121;28;20410;-67
2022/02/08 00:56:04;;;;;;;6.37;4.50;;;9.20;99.80;;;;;;5050581;28;20524;-67
2022/02/08 00:58:30;;;;;;;12.50;4.27;;;9.10;99.90;;;;;;5050570;28;20174;-67
2022/02/08 01:00:57;;;;;;;9.70;4.27;;;9.10;99.90;;;;;;5051260;28;20209;-67
2022/02/08 01:03:23;;;;;;;6.30;3.93;;;9.10;99.90;;;;;;5050799;28;20406;-67
2022/02/08 01:05:56;;;;;;;9.43;4.73;;;9.20;99.90;;;;;;5051815;28;20401;-68
2022/02/08 01:08:28;;;;;;;6.57;4.20;;;9.10;99.90;;;;;;5016636;28;20444;-68
2022/02/08 01:10:54;;;;;;;7.20;4.70;;;9.10;99.90;;;;;;5051286;28;20408;-68
2022/02/08 01:13:19;;;;;;;8.80;4.40;;;9.10;99.90;;;;;;5032681;28;20519;-68
2022/02/08 01:15:45;;;;;;;5.53;3.90;;;9.10;99.90;;;;;;5050640;28;20268;-67
2022/02/08 01:18:11;;;;;;;6.50;4.40;;;9.10;99.90;;;;;;5013504;28;20232;-67
2022/02/08 01:20:38;;;;;;;10.27;4.23;;;9.10;99.90;;;;;;5031834;28;20213;-67
2022/02/08 01:23:07;;;;;;;10.87;4.47;;;8.90;99.90;;;;;;5034611;28;20280;-67
2022/02/08 01:25:43;;;;;;;6.97;4.60;;;9.00;99.90;;;;;;5033893;28;20467;-67
2022/02/08 01:30:58;;;;;;;9.17;4.53;;;9.00;99.90;;;;;;5034943;28;20390;-70
2022/02/08 01:41:51;;;;;;;10.03;5.37;;;8.90;99.90;;;;;;5033685;28;20444;-67
2022/02/08 01:47:13;;;;;;;8.37;4.80;;;8.80;99.90;;;;;;5034610;28;20390;-68
2022/02/08 01:49:57;;;;;;;7.17;4.90;;;8.90;99.90;;;;;;5016174;28;20432;-67
2022/02/08 01:52:24;;;;;;;6.00;5.50;;;8.60;99.90;;;;;;5046145;28;20764;-67
2022/02/08 01:54:51;;;;;;;10.90;5.77;;;8.80;99.90;;;;;;5054120;28;20938;-68
2022/02/08 01:57:17;;;;;;;5.77;4.73;;;8.80;99.90;;;;;;5035861;28;20931;-79
2022/02/08 01:59:43;;;;;;;8.83;5.67;;;8.90;99.90;;;;;;5035893;28;20468;-67
2022/02/08 02:02:09;;;;;;;8.10;5.63;;;8.90;99.90;;;;;;5054200;28;20977;-67
2022/02/08 02:04:34;;;;;;;9.83;5.20;;;9.00;99.90;;;;;;5053394;28;20396;-67
2022/02/08 02:07:01;;;;;;;6.70;5.33;;;9.00;99.90;;;;;;5019910;28;20178;-67
2022/02/08 02:09:27;;;;;;;8.93;5.80;;;9.00;99.90;;;;;;5053303;28;20257;-67
2022/02/08 02:11:57;;;;;;;12.13;6.47;;;9.00;99.90;;;;;;5045739;28;20423;-67
2022/02/08 02:14:23;;;;;;;6.80;5.20;;;9.00;99.90;;;;;;5033369;28;20422;-67
2022/02/08 02:16:56;;;;;;;5.50;5.00;;;9.00;99.90;;;;;;5033974;28;20409;-68
2022/02/08 02:19:26;;;;;;;7.83;5.70;;;9.00;99.90;;;;;;5033252;28;20413;-67
2022/02/08 02:21:52;;;;;;;8.47;5.90;;;9.00;99.90;;;;;;5033618;28;20580;-67
2022/02/08 02:24:18;;;;;;;5.73;5.10;;;9.00;99.90;;;;;;5015957;28;20421;-77
2022/02/08 02:26:44;;;;;;;5.97;5.37;;;9.00;99.90;;;;;;5033556;28;20424;-67
2022/02/08 02:29:16;;;;;;;6.63;5.90;;;9.00;99.90;;;;;;5033708;28;20170;-68
2022/02/08 02:31:43;;;;;;;5.23;4.83;;;8.80;99.90;;;;;;5035938;28;20424;-67
2022/02/08 02:34:10;;;;;;;5.63;5.00;;;9.10;99.90;;;;;;5053606;28;20429;-67
2022/02/08 02:36:40;;;;;;;6.87;6.20;;;9.20;99.90;;;;;;5052836;28;20409;-67
2022/02/08 02:39:06;;;;;;;5.53;5.03;;;9.10;99.90;;;;;;5036103;28;20489;-67
2022/02/08 02:41:39;;;;;;;5.13;4.73;;;9.10;99.90;;;;;;5052614;28;20463;-67
2022/02/08 02:44:10;;;;;;;5.23;4.70;;;9.00;99.90;;;;;;5053250;28;20404;-67
2022/02/08 02:46:36;;;;;;;4.50;4.10;;;8.90;99.90;;;;;;5038017;28;20413;-67
2022/02/08 02:49:03;;;;;;;4.40;4.10;;;8.90;99.90;;;;;;5033182;28;20479;-67
2022/02/08 02:51:29;;;;;;;4.40;3.93;;;9.00;99.90;;;;;;5032743;28;20406;-68
2022/02/08 02:53:56;;;;;;;4.83;4.43;;;8.90;99.90;;;;;;5015643;28;20421;-67
2022/02/08 02:56:22;;;;;;;3.83;3.63;;;9.00;99.90;;;;;;5016007;28;20507;-76
2022/02/08 02:58:49;;;;;;;4.87;4.53;;;8.90;99.90;;;;;;5015605;28;20507;-67
2022/02/08 03:03:59;;;;;;;4.03;3.83;;;9.00;99.90;;;;;;5052030;28;20968;-67
2022/02/08 03:17:59;;;;;;;4.33;4.03;;;9.20;99.90;;;;;;5014754;28;20559;-78
2022/02/08 03:20:10;;;;;;;4.30;3.90;;;9.10;99.90;;;;;;5030394;28;20531;-68
2022/02/08 03:22:36;;;;;;;4.80;4.40;;;9.10;99.90;;;;;;5042396;28;20453;-67
2022/02/08 03:25:02;;;;;;;4.37;4.07;;;9.10;99.90;;;;;;5052495;28;20184;-67
2022/02/08 03:27:28;;;;;;;4.63;4.33;;;9.00;99.90;;;;;;5051136;28;20639;-67
2022/02/08 03:29:54;;;;;;;5.30;5.00;;;9.30;99.90;;;;;;5060468;28;20517;-67
2022/02/08 03:32:22;;;;;;;5.20;4.90;;;9.10;99.90;;;;;;5072438;28;20903;-67
2022/02/08 03:34:47;;;;;;;4.87;4.53;;;9.10;99.90;;;;;;5071932;28;20175;-67
2022/02/08 03:37:14;;;;;;;4.43;4.20;;;9.10;99.90;;;;;;5071157;28;20786;-68
2022/02/08 03:39:42;;;;;;;5.47;4.93;;;9.10;99.90;;;;;;5070255;28;20201;-68
2022/02/08 03:42:17;;;;;;;5.60;5.30;;;9.20;99.90;;;;;;5072172;28;20767;-68
2022/02/08 03:44:47;;;;;;;5.43;5.10;;;9.20;99.90;;;;;;5071500;28;20391;-67
2022/02/08 03:47:15;;;;;;;5.77;5.37;;;9.20;99.90;;;;;;5072245;28;20407;-67
2022/02/08 03:49:41;;;;;;;5.50;5.17;;;9.20;99.90;;;;;;5064430;28;20987;-67
2022/02/08 03:52:07;;;;;;;5.90;5.40;;;9.40;99.90;;;;;;5051955;28;20903;-68
2022/02/08 03:54:33;;;;;;;5.50;5.10;;;9.20;99.90;;;;;;5051674;28;20499;-68
2022/02/08 03:57:00;;;;;;;5.47;4.97;;;9.20;99.90;;;;;;5052221;28;20416;-67
2022/02/08 03:59:26;;;;;;;5.23;4.87;;;9.30;99.90;;;;;;5051232;28;20425;-76
2022/02/08 04:02:19;;;;;;;5.53;5.13;;;9.30;99.90;;;;;;5052133;28;20471;-67
2022/02/08 04:07:26;;;;;;;5.17;4.80;;;9.20;99.90;;;;;;5052059;28;20519;-69
2022/02/08 04:09:59;;;;;;;4.93;4.63;;;9.30;99.90;;;;;;5050915;28;20260;-67
2022/02/08 04:12:34;;;;;;;4.90;4.60;;;9.30;99.90;;;;;;5051533;28;20420;-77
2022/02/08 04:41:36;;;;;;;4.90;4.50;;;9.40;99.90;;;;;;5051711;28;20452;-77
2022/02/08 04:44:30;;;;;;;5.07;4.67;;;9.40;99.90;;;;;;5050676;28;20843;-67
2022/02/08 04:47:01;;;;;;;4.80;4.50;;;9.30;99.90;;;;;;5050564;28;20416;-68
2022/02/08 04:49:26;;;;;;;5.83;5.23;;;9.40;99.90;;;;;;5051151;28;20431;-78
2022/02/08 04:51:57;;;;;;;5.77;5.20;;;9.30;99.90;;;;;;5051131;28;20421;-67
2022/02/08 04:54:39;;;;;;;6.43;5.83;;;9.30;99.90;;;;;;5051752;28;20158;-67
2022/02/08 05:43:21;;;;;;;9.03;8.13;;;9.70;99.90;;;;;;5054803;28;20401;-67
2022/02/08 05:48:24;;;;;;;8.40;7.60;;;9.80;99.90;;;;;;5054001;28;20896;-68
2022/02/08 05:51:04;;;;;;;9.30;8.50;;;9.70;99.90;;;;;;5052901;28;20420;-67
2022/02/08 05:53:42;;;;;;;9.20;8.13;;;9.90;99.90;;;;;;5053713;28;20420;-77
2022/02/08 05:56:09;;;;;;;8.73;7.93;;;9.90;99.90;;;;;;5036735;28;20452;-67
2022/02/08 05:58:36;;;;;;;8.60;8.00;;;9.90;99.90;;;;;;5053344;28;20421;-68
2022/02/08 06:01:02;;;;;;;9.53;7.67;;;10.00;99.90;;;;;;5059789;28;20457;-67
2022/02/08 06:03:28;;;;;;;8.43;7.73;;;10.00;99.90;;;;;;5058507;28;20428;-76
2022/02/08 06:05:54;;;;;;;7.83;7.23;;;10.00;99.90;;;;;;5052591;28;20905;-68
2022/02/08 06:08:19;;;;;;;8.43;7.63;;;10.10;99.90;;;;;;5056005;28;20214;-67
2022/02/08 06:10:52;;;;;;;8.67;7.60;;;10.10;99.90;;;;;;5073368;28;20178;-67
2022/02/08 06:13:20;;;;;;;9.90;7.80;;;10.00;99.90;;;;;;5072636;28;20170;-67
2022/02/08 06:15:48;;;;;;;8.00;7.30;;;10.10;99.90;;;;;;5072383;28;20418;-67
2022/02/08 06:18:14;;;;;;;8.20;7.40;;;10.10;99.90;;;;;;5074255;28;20441;-67
2022/02/08 06:20:40;;;;;;;8.10;7.03;;;10.10;99.90;;;;;;5072814;28;20504;-67
2022/02/08 06:23:05;;;;;;;7.60;6.83;;;10.10;99.90;;;;;;5072362;28;20199;-67
2022/02/08 06:25:31;;;;;;;8.03;7.33;;;10.10;99.90;;;;;;5061228;28;20651;-76
2022/02/08 06:27:57;;;;;;;8.00;7.27;;;10.10;99.90;;;;;;5073579;28;20174;-67
2022/02/08 06:30:23;;;;;;;8.07;7.37;;;10.10;99.90;;;;;;5059000;28;20443;-67
2022/02/08 06:32:52;;;;;;;8.67;7.07;;;10.10;99.90;;;;;;5052737;28;20199;-67
2022/02/08 06:35:24;;;;;;;8.10;7.40;;;10.10;99.90;;;;;;5053940;28;20447;-67
2022/02/08 06:37:50;;;;;;;8.37;7.40;;;10.10;99.90;;;;;;5053032;28;20420;-67
2022/02/08 06:40:17;;;;;;;7.87;7.17;;;10.10;99.90;;;;;;5057109;28;20816;-67
2022/02/08 06:42:44;;;;;;;8.50;7.77;;;10.10;99.90;;;;;;5051470;28;20460;-67
2022/02/08 06:45:11;;;;;;;9.40;7.97;;;10.10;99.90;;;;;;5053625;28;20424;-67
2022/02/08 06:47:38;;;;;;;8.40;6.57;;;10.10;99.90;;;;;;5052262;28;20422;-68
2022/02/08 06:50:05;;;;;;;8.27;7.47;;;10.10;99.90;;;;;;5060874;28;20434;-69
2022/02/08 06:52:32;;;;;;;7.13;6.53;;;10.10;99.90;;;;;;5070472;28;20472;-76
2022/02/08 06:54:57;;;;;;;7.60;6.50;;;10.10;99.90;;;;;;5069731;28;20433;-68
2022/02/08 06:57:25;;;;;;;7.00;6.40;;;10.20;99.90;;;;;;5073094;28;20424;-68
2022/02/08 06:59:53;;;;;;;7.43;6.73;;;10.20;99.90;;;;;;5063803;28;20463;-69
2022/02/08 07:02:19;;;;;;;6.87;6.27;;;10.20;99.90;;;;;;5071186;28;20511;-68
2022/02/08 07:04:45;;;;;;;5.83;5.33;;;10.20;99.90;;;;;;5062180;28;20438;-68
2022/02/08 07:07:15;;;;;;;7.67;6.97;;;10.20;99.90;;;;;;5054665;28;20423;-67
2022/02/08 07:09:43;;;;;;;7.40;6.60;;;10.20;99.90;;;;;;5060999;28;20426;-67
2022/02/08 07:12:09;;;;;;;7.70;7.10;;;10.30;99.90;;;;;;5057442;28;20473;-67
2022/02/08 07:14:35;;;;;;;6.60;6.00;;;10.20;99.90;;;;;;5057482;28;20518;-68
2022/02/08 07:17:01;;;;;;;6.80;6.20;;;10.20;99.90;;;;;;5071867;28;20489;-68
2022/02/08 07:19:27;;;;;;;6.37;5.97;;;10.20;99.90;;;;;;5072345;28;20175;-67
2022/02/08 07:21:52;;;;;;;6.50;5.90;;;10.30;99.90;;;;;;5047371;28;21015;-68
2022/02/08 07:24:19;;;;;;;5.87;5.37;;;10.30;99.90;;;;;;5017595;28;20190;-68
2022/02/08 07:26:51;;;;;;;5.83;5.43;;;10.30;99.90;;;;;;5031868;28;20558;-68
2022/02/08 07:29:17;;;;;;;6.00;5.60;;;10.30;99.90;;;;;;5039454;28;20427;-68
2022/02/08 07:31:52;;;;;;;6.50;5.80;;;10.30;99.90;;;;;;5047979;28;20431;-67
2022/02/08 07:37:09;;;;;;;5.60;5.13;;;10.30;99.90;;;;;;5032414;28;20449;-67
2022/02/08 07:39:45;;;;;;;6.00;5.50;;;10.20;99.90;;;;;;5032064;28;20190;-69
2022/02/08 07:42:11;;;;;;;5.37;4.97;;;10.10;99.90;;;;;;5044376;28;20501;-68
2022/02/08 07:44:37;;;;;;;6.43;5.83;;;10.10;99.90;;;;;;5020921;28;20896;-68
2022/02/08 07:47:03;;;;;;;6.40;5.80;;;10.20;99.90;;;;;;5034914;28;20206;-71
2022/02/08 07:49:31;;;;;;;6.27;5.70;;;10.10;99.90;;;;;;5052501;28;20413;-72
2022/02/08 07:51:57;;;;;;;8.43;6.20;;;10.10;99.90;;;;;;5040324;28;20433;-72
2022/02/08 07:54:22;;;;;;;6.63;6.03;;;10.20;99.90;;;;;;5021937;28;20428;-76
2022/02/08 07:56:49;;;;;;;7.30;6.80;;;10.20;99.90;;;;;;5032196;28;20224;-75
2022/02/08 07:59:15;;;;;;;7.57;6.97;;;10.50;99.90;;;;;;5032753;28;20554;-75
2022/02/08 08:01:40;;;;;;;6.80;6.20;;;10.90;99.90;;;;;;5023915;28;20514;-75
2022/02/08 08:04:06;;;;;;;6.43;5.83;;;11.30;99.90;;;;;;5015272;28;20178;-72
2022/02/08 08:06:32;;;;;;;6.77;6.27;;;11.60;99.90;;;;;;5032970;28;20181;-71
2022/02/08 08:08:58;;;;;;;6.43;5.83;;;11.60;99.90;;;;;;5031608;28;20171;-71
2022/02/08 08:11:24;;;;;;;6.20;5.70;;;11.50;99.90;;;;;;5032287;28;20209;-71
2022/02/08 08:16:30;;;;;;;6.10;5.70;;;11.10;99.90;;;;;;5032908;28;20834;-71
2022/02/08 08:19:02;;;;;;;6.87;6.27;;;11.10;99.90;;;;;;5017161;28;20931;-71
2022/02/08 08:21:28;;;;;;;6.50;5.97;;;11.00;99.90;;;;;;5043055;28;20512;-71
2022/02/08 08:23:54;;;;;;;5.93;5.53;;;11.00;99.90;;;;;;5033951;28;20855;-71
2022/02/08 08:26:21;;;;;;;6.37;5.87;;;10.90;99.90;;;;;;5044085;28;20527;-71
2022/02/08 08:28:47;;;;;;;6.33;5.83;;;10.80;99.90;;;;;;5042614;28;20818;-70
2022/02/08 08:31:14;;;;;;;7.43;6.83;;;10.70;99.90;;;;;;5035880;28;20430;-71
2022/02/08 08:33:40;;;;;;;6.67;6.00;;;10.80;99.90;;;;;;5035724;28;20825;-71
2022/02/08 08:36:06;;;;;;;7.53;6.83;;;10.70;99.90;;;;;;5036521;28;20428;-71
2022/02/08 08:38:33;;;;;;;7.77;7.10;;;10.70;99.90;;;;;;5036307;28;20526;-71
2022/02/08 08:41:08;;;;;;;8.57;7.87;;;10.60;99.90;;;;;;5017897;28;20485;-71
2022/02/08 08:51:46;;;;;;;9.67;8.60;;;10.60;99.90;;;;;;5036213;28;20435;-70
2022/02/08 08:54:12;;;;;;;9.10;8.30;;;10.60;99.90;;;;;;5037132;28;20932;-70
2022/02/08 08:56:40;;;;;;;8.93;8.13;;;10.60;99.90;;;;;;5047619;28;20438;-76
2022/02/08 08:59:08;;;;;;;11.30;8.73;;;10.60;99.90;;;;;;5042510;28;20436;-70
2022/02/08 09:01:35;;;;;;;9.30;8.40;;;10.60;99.90;;;;;;5038387;28;20463;-70
2022/02/08 09:04:01;;;;;;;9.70;8.40;;;10.70;99.90;;;;;;5053340;28;20456;-70
2022/02/08 09:06:28;;;;;;;9.17;8.27;;;10.70;99.90;;;;;;5045687;28;20429;-70
2022/02/08 09:08:54;;;;;;;10.23;9.23;;;10.60;99.90;;;;;;5050107;28;20420;-71
2022/02/08 09:11:46;;;;;;;8.50;7.70;;;10.60;99.90;;;;;;5054655;28;20410;-71
2022/02/08 09:14:13;;;;;;;8.40;7.67;;;10.70;99.90;;;;;;5053603;28;20946;-70
2022/02/08 09:19:38;;;;;;;9.27;8.37;;;10.80;99.90;;;;;;5055777;28;20477;-71
2022/02/08 09:22:28;;;;;;;10.80;9.10;;;10.70;99.90;;;;;;5054694;28;20839;-71
2022/02/08 09:30:58;;;;;;;12.27;9.80;;;10.90;99.90;;;;;;4973485;28;20474;-71
2022/02/08 09:33:24;;;;;;;12.10;9.00;;;11.00;99.90;;;;;;5043816;28;20433;-71
2022/02/08 09:35:50;;;;;;;10.23;8.63;;;10.90;99.90;;;;;;5036606;28;20420;-71
2022/02/08 09:38:17;;;;;;;9.57;8.63;;;10.90;99.90;;;;;;5055352;28;20617;-71
2022/02/08 09:40:44;;;;;;;9.80;8.80;;;10.90;99.90;;;;;;5053999;28;20874;-71
2022/02/08 09:43:14;;;;;;;9.93;8.83;;;10.90;99.90;;;;;;5037169;28;20497;-70
2022/02/08 09:45:48;;;;;;;9.60;8.70;;;10.90;99.90;;;;;;5054680;28;20900;-71
2022/02/08 09:48:22;;;;;;;11.90;9.87;;;10.80;99.90;;;;;;5054865;28;20486;-71
2022/02/08 09:50:50;;;;;;;11.07;8.90;;;10.90;99.90;;;;;;5054388;28;20426;-71
2022/02/08 09:53:22;;;;;;;10.73;8.73;;;10.90;99.90;;;;;;5054920;28;20408;-71
2022/02/08 09:55:48;;;;;;;13.90;9.10;;;10.80;99.90;;;;;;5054216;28;20855;-71
2022/02/08 09:58:14;;;;;;;12.33;8.87;;;10.90;99.90;;;;;;5054675;28;20437;-71
2022/02/08 10:00:40;;;;;;;9.87;8.60;;;11.00;99.90;;;;;;5054681;28;20219;-71
2022/02/08 10:03:12;;;;;;;9.97;8.23;;;11.00;99.90;;;;;;5054046;28;20208;-71
2022/02/08 10:05:51;;;;;;;10.90;9.40;;;10.90;99.90;;;;;;5054954;28;20437;-71
2022/02/08 10:08:17;;;;;;;9.57;8.60;;;11.00;99.90;;;;;;5054676;28;20404;-71
2022/02/08 10:10:44;;;;;;;9.93;9.03;;;11.00;99.90;;;;;;5036109;28;20427;-76
2022/02/08 10:13:45;;;;;;;9.27;8.37;;;10.90;99.90;;;;;;5054518;28;20419;-71
2022/02/08 10:19:12;;;;;;;8.97;8.07;;;11.10;99.90;;;;;;5054081;28;20429;-71
2022/02/08 10:21:44;;;;;;;8.43;7.63;;;11.10;99.90;;;;;;5054317;28;20483;-71
2022/02/08 10:24:12;;;;;;;9.20;8.07;;;11.10;99.90;;;;;;5054269;28;20412;-71
2022/02/08 10:37:35;;;;;;;8.80;8.00;;;11.20;99.90;;;;;;5053571;28;20407;-71
2022/02/08 10:38:06;;;;;;;8.97;7.43;;;11.20;99.90;;;;;;5053457;28;20454;-71
2022/02/08 10:40:38;;;;;;;11.93;9.00;;;11.30;99.90;;;;;;5054028;28;20926;-71
2022/02/08 10:43:07;;;;;;;8.13;7.33;;;11.40;99.90;;;;;;5053142;28;20896;-70
2022/02/08 10:45:36;;;;;;;8.03;7.20;;;11.30;99.90;;;;;;5053860;28;20446;-71
2022/02/08 10:48:05;;;;;;;8.43;7.73;;;11.30;99.90;;;;;;5053562;28;20416;-71
2022/02/08 10:50:46;;;;;;;9.40;8.50;;;11.30;99.90;;;;;;5053622;28;20435;-71
2022/02/08 10:53:14;;;;;;;8.63;7.83;;;11.40;99.90;;;;;;5053061;28;20414;-71
2022/02/08 10:58:14;;;;;;;8.97;8.07;;;11.40;99.90;;;;;;5053168;28;21234;-71
2022/02/08 11:03:11;;;;;;;9.70;8.70;;;11.50;99.90;;;;;;5052938;28;20419;-70
2022/02/08 11:05:53;;;;;;;8.50;7.80;;;11.50;99.90;;;;;;5019284;28;20607;-70
2022/02/08 11:08:38;;;;;;;8.80;7.93;;;11.60;99.90;;;;;;5035934;28;20406;-70
2022/02/08 11:14:28;;;;;;;10.10;8.90;;;11.50;99.90;;;;;;5053404;28;20468;-70
2022/02/08 11:22:56;;;;;;;8.40;7.13;;;11.50;99.90;;;;;;5053354;28;20450;-70
2022/02/08 11:25:33;;;;;;;6.80;6.30;;;11.50;99.90;;;;;;5053408;28;20861;-70
2022/02/08 11:31:13;;;;;;;7.47;6.87;;;11.70;99.90;;;;;;5052542;28;20749;-75
2022/02/08 11:45:36;;;;;;;7.33;6.83;;;11.70;99.90;;;;;;4971102;28;20920;-70
2022/02/08 11:53:15;;;;;;;7.67;7.07;;;11.70;99.90;;;;;;5051832;28;20444;-70
2022/02/08 11:56:44;;;;;;;7.63;6.77;;;11.70;99.90;;;;;;5052653;28;20422;-70
2022/02/08 12:02:05;;;;;;;7.57;6.80;;;11.80;99.90;;;;;;5052642;28;20459;-70
2022/02/08 12:04:40;;;;;;;6.50;6.00;;;11.70;99.90;;;;;;5052272;28;20400;-70
2022/02/08 12:07:10;;;;;;;6.30;5.70;;;11.70;99.90;;;;;;5051974;28;20404;-70
2022/02/08 12:35:29;;;;;;;5.63;4.13;;;11.90;99.90;;;;;;5052323;28;20480;-70
2022/02/08 14:07:56;;;;;;;3.70;3.40;;;12.20;99.90;;;;;;5046768;28;20429;-71
2022/02/08 14:10:40;;;;;;;4.60;3.43;;;12.10;99.90;;;;;;5037226;28;20413;-73
2022/02/08 14:15:50;;;;;;;4.50;3.63;;;12.20;99.90;;;;;;5034603;28;20490;-73
2022/02/08 14:21:05;;;;;;;4.10;3.67;;;12.20;99.90;;;;;;5053671;28;20462;-73
2022/02/08 14:29:34;;;;;;;3.27;2.70;;;12.20;99.90;;;;;;5053084;28;20404;-73
2022/02/08 14:49:04;;;;;;;5.10;3.03;;;12.30;99.90;;;;;;5032782;28;20912;-72
2022/02/08 15:09:59;;;;;;;3.50;3.20;;;12.30;99.90;;;;;;5014942;28;20893;-73
2022/02/08 15:12:28;;;;;;;2.33;2.13;;;12.30;99.90;;;;;;5015069;28;20440;-73
2022/02/08 15:15:02;;;;;;;4.23;3.20;;;12.30;99.90;;;;;;5032327;28;20428;-73
2022/02/08 15:17:28;;;;;;;3.47;2.60;;;12.30;99.90;;;;;;5032254;28;20434;-73
2022/02/08 15:19:57;;;;;;;2.70;2.60;;;12.30;99.90;;;;;;5032258;28;20413;-73
2022/02/08 15:22:23;;;;;;;4.30;3.30;;;12.30;99.90;;;;;;5057398;28;20224;-73
2022/02/08 15:24:49;;;;;;;6.17;3.60;;;12.30;99.90;;;;;;5055155;28;20424;-72
2022/02/08 15:27:15;;;;;;;4.93;4.10;;;12.30;99.90;;;;;;5051724;28;20412;-72
2022/02/08 15:29:41;;;;;;;2.90;2.70;;;12.30;99.90;;;;;;5054478;28;20179;-73
2022/02/08 15:32:14;;;;;;;4.67;2.90;;;12.30;99.90;;;;;;5056363;28;20473;-73
2022/02/08 15:34:40;;;;;;;4.40;3.90;;;12.30;99.90;;;;;;5052338;28;20416;-73
2022/02/08 15:37:05;;;;;;;3.70;2.73;;;12.30;99.90;;;;;;5055780;28;20946;-73
2022/02/08 15:39:32;;;;;;;4.97;4.23;;;12.30;99.90;;;;;;5055355;28;20431;-73
2022/02/08 15:41:58;;;;;;;3.10;2.90;;;12.20;99.90;;;;;;5054788;28;20207;-73
2022/02/08 15:44:26;;;;;;;2.63;2.43;;;12.20;99.90;;;;;;5056095;28;20436;-72
2022/02/08 15:46:52;;;;;;;3.07;2.80;;;12.20;99.90;;;;;;5051053;28;20428;-73
2022/02/08 15:49:18;;;;;;;2.90;2.70;;;12.20;99.90;;;;;;5051312;28;20434;-73
2022/02/08 15:51:53;;;;;;;2.93;2.70;;;12.10;99.90;;;;;;5052366;28;20842;-73
2022/02/08 15:56:57;;;;;;;3.07;2.87;;;12.10;99.90;;;;;;5053609;28;20463;-73
2022/02/08 16:07:37;;;;;;;4.70;4.30;;;12.10;99.90;;;;;;5051862;28;20755;-73
2022/02/08 16:10:09;;;;;;;4.00;3.70;;;12.10;99.90;;;;;;5052009;28;20419;-73
2022/02/08 16:17:56;;;;;;;5.93;2.97;;;12.10;99.90;;;;;;5053590;28;20182;-73
2022/02/08 16:26:24;;;;;;;3.63;3.33;;;12.10;99.90;;;;;;5036274;28;20161;-73
2022/02/08 16:53:02;;;;;;;5.53;5.00;;;12.20;99.90;;;;;;5054628;28;20259;-74
2022/02/08 16:58:24;;;;;;;5.50;5.00;;;12.20;99.90;;;;;;5035545;28;20431;-73
2022/02/08 17:00:51;;;;;;;7.60;4.23;;;12.20;99.90;;;;;;5035365;28;20716;-72
2022/02/08 17:03:25;;;;;;;4.27;3.97;;;12.10;99.90;;;;;;5013482;28;20416;-72
2022/02/08 17:05:51;;;;;;;4.00;3.80;;;12.10;99.90;;;;;;5040606;28;20491;-73
2022/02/08 17:08:17;;;;;;;4.50;3.90;;;12.10;99.90;;;;;;5034594;28;20451;-73
2022/02/08 17:10:47;;;;;;;5.03;4.63;;;12.20;99.90;;;;;;5035046;28;20591;-73
2022/02/08 17:13:30;;;;;;;7.53;5.40;;;12.20;99.90;;;;;;5034773;28;20746;-73
2022/02/08 17:36:27;;;;;;;8.57;7.77;;;12.20;99.90;;;;;;5025386;28;20416;-73
2022/02/08 17:48:14;;;;;;;5.03;4.63;;;12.20;99.90;;;;;;5042828;28;20632;-73
2022/02/08 17:50:40;;;;;;;6.50;6.10;;;12.20;99.90;;;;;;5038035;28;20460;-73
2022/02/08 17:53:05;;;;;;;5.53;5.03;;;12.20;99.90;;;;;;5016396;28;20240;-73
2022/02/08 17:55:32;;;;;;;5.03;4.53;;;12.20;99.90;;;;;;5041012;28;20193;-74
2022/02/08 17:58:00;;;;;;;4.67;4.37;;;12.30;99.90;;;;;;5049711;28;20260;-73
2022/02/08 18:00:26;;;;;;;5.20;4.80;;;12.30;99.90;;;;;;5044326;28;20511;-73
2022/02/08 18:02:52;;;;;;;5.17;4.77;;;12.40;99.90;;;;;;5043592;28;20819;-73
2022/02/08 18:05:18;;;;;;;5.73;5.23;;;12.40;99.90;;;;;;5049761;28;20430;-74
2022/02/08 18:07:44;;;;;;;6.20;5.60;;;12.30;99.90;;;;;;5042630;28;20182;-73
2022/02/08 18:10:12;;;;;;;7.40;6.80;;;12.40;99.90;;;;;;5052825;28;20276;-72
2022/02/08 18:12:41;;;;;;;5.57;5.20;;;12.40;99.90;;;;;;5041569;28;20433;-73
2022/02/08 18:15:12;;;;;;;12.03;8.40;;;12.30;99.90;;;;;;5046542;28;20435;-74
2022/02/08 18:17:43;;;;;;;9.50;8.50;;;12.40;99.90;;;;;;5041309;28;20444;-73
2022/02/08 18:20:23;;;;;;;6.90;6.20;;;12.30;99.90;;;;;;5037942;28;20516;-72
2022/02/08 19:19:16;;;;;;;8.30;7.50;;;12.20;99.90;;;;;;5060173;28;20428;-73
2022/02/08 19:21:45;;;;;;;6.07;5.67;;;12.20;99.90;;;;;;5047019;28;20488;-73
2022/02/08 19:24:19;;;;;;;7.20;6.50;;;12.20;99.90;;;;;;5048004;28;20432;-72
2022/02/08 19:26:57;;;;;;;5.83;5.43;;;12.20;99.90;;;;;;5051730;28;20420;-73
2022/02/08 19:29:26;;;;;;;7.10;6.63;;;12.20;99.90;;;;;;5028756;28;20420;-73
2022/02/08 19:31:53;;;;;;;7.70;5.00;;;12.20;99.90;;;;;;5022663;28;20426;-73
2022/02/08 19:34:19;;;;;;;5.90;5.40;;;12.10;99.90;;;;;;5033832;28;20870;-73
2022/02/08 19:36:46;;;;;;;7.93;7.43;;;12.10;99.90;;;;;;5044746;28;20424;-76
2022/02/08 19:39:13;;;;;;;6.53;6.03;;;12.10;99.90;;;;;;5035214;28;20464;-75
2022/02/08 19:41:39;;;;;;;6.53;5.90;;;12.10;99.90;;;;;;5041170;28;20548;-76
2022/02/08 19:44:09;;;;;;;6.00;5.50;;;12.20;99.90;;;;;;5032570;28;20923;-76
2022/02/08 19:46:36;;;;;;;7.70;7.20;;;12.20;99.90;;;;;;5014497;28;20885;-76
2022/02/08 19:49:03;;;;;;;8.50;7.17;;;12.20;99.90;;;;;;5032758;28;20426;-76
2022/02/08 19:51:29;;;;;;;7.00;6.50;;;12.20;99.90;;;;;;5051527;28;20428;-76
2022/02/08 19:53:57;;;;;;;8.73;8.13;;;12.30;99.90;;;;;;5052180;28;20469;-76
2022/02/08 19:56:42;;;;;;;8.27;7.57;;;12.30;99.90;;;;;;5051217;28;20187;-76
2022/02/08 19:59:10;;;;;;;7.10;6.60;;;12.40;99.90;;;;;;5032432;28;20750;-76
2022/02/08 20:01:38;;;;;;;7.30;6.80;;;12.40;99.90;;;;;;5031570;28;20502;-76
2022/02/08 20:04:15;;;;;;;7.90;7.10;;;12.50;99.90;;;;;;5018876;28;20778;-75
2022/02/08 20:06:41;;;;;;;7.53;6.93;;;12.50;99.90;;;;;;5025527;28;20422;-74
2022/02/08 20:09:07;;;;;;;9.20;8.30;;;12.50;99.90;;;;;;5031288;28;20232;-74
2022/02/08 20:11:34;;;;;;;6.60;6.20;;;12.40;99.90;;;;;;5032480;28;20989;-75
2022/02/08 20:14:02;;;;;;;8.57;8.07;;;12.40;99.90;;;;;;5021266;28;20177;-75
2022/02/08 20:16:31;;;;;;;7.13;6.63;;;12.50;99.90;;;;;;5030916;28;20420;-75
2022/02/08 20:19:01;;;;;;;11.70;6.10;;;12.50;99.90;;;;;;5040528;28;20435;-74
2022/02/08 20:21:29;;;;;;;6.43;6.03;;;12.50;99.90;;;;;;5032241;28;21144;-74
2022/02/08 20:23:58;;;;;;;7.87;6.30;;;12.40;99.90;;;;;;5016337;28;20425;-73
2022/02/08 20:26:30;;;;;;;6.43;5.87;;;12.40;99.90;;;;;;5015656;28;20425;-74
2022/02/08 20:28:57;;;;;;;5.90;5.50;;;12.50;99.90;;;;;;5034840;28;20430;-74
2022/02/08 20:31:25;;;;;;;6.40;5.90;;;12.40;99.90;;;;;;5034681;28;20462;-74
2022/02/08 20:33:51;;;;;;;7.53;6.37;;;12.40;99.90;;;;;;5019448;28;20873;-75
2022/02/08 20:36:18;;;;;;;6.87;6.27;;;12.30;99.90;;;;;;5026620;28;20516;-73
2022/02/08 20:38:48;;;;;;;7.40;6.70;;;12.30;99.90;;;;;;5042124;28;20431;-74
2022/02/08 20:41:21;;;;;;;7.17;6.67;;;12.10;99.90;;;;;;5017946;28;20964;-73
2022/02/08 20:43:50;;;;;;;482.47;288.43;;;12.10;99.90;;;;;;5047344;28;20425;-73
2022/02/08 20:46:16;;;;;;;23.13;16.20;;;12.10;99.90;;;;;;5046714;28;20487;-73
2022/02/08 20:48:45;;;;;;;7.43;6.83;;;12.10;99.90;;;;;;5055381;28;20546;-74
2022/02/08 20:51:11;;;;;;;6.43;5.83;;;12.10;99.90;;;;;;5048918;28;20517;-75
2022/02/08 20:56:26;;;;;;;6.30;5.90;;;12.00;99.90;;;;;;5036176;28;20420;-74